Time;durP1;ratioP1;P1;durP2;ratioP2;P2;SDS_P1;SDS_P2;PMS_P1;PMS_P2;Temp;Humidity;BMP_temperature;BMP_pressure;BME280_temperature;BME280_humidity;BME280_pressure;Samples;Min_cycle;Max_cycle;Signal;HPM_P1;HPM_P2
2020/12/26 00:02:11;;;;;;;16.38;4.70;;;3.00;99.90;;;;;;5048484;28;20124;-60
2020/12/26 00:04:36;;;;;;;20.08;5.65;;;3.00;99.90;;;;;;5048731;28;20196;-59
2020/12/26 00:07:04;;;;;;;12.25;4.75;;;3.00;99.90;;;;;;5048272;28;20525;-58
2020/12/26 00:09:29;;;;;;;15.20;4.75;;;3.10;99.90;;;;;;5048828;28;20091;-61
2020/12/26 00:11:55;;;;;;;12.07;4.60;;;3.00;99.90;;;;;;5048318;28;20115;-59
2020/12/26 00:14:27;;;;;;;11.10;3.97;;;3.00;99.90;;;;;;5049017;28;20036;-61
2020/12/26 00:16:52;;;;;;;11.15;4.18;;;3.00;99.90;;;;;;5045419;28;20090;-59
2020/12/26 00:19:18;;;;;;;13.85;4.68;;;3.00;99.90;;;;;;5048596;28;20032;-59
2020/12/26 00:21:43;;;;;;;12.95;5.10;;;3.00;99.90;;;;;;5048656;28;20029;-59
2020/12/26 00:24:09;;;;;;;14.70;5.15;;;3.10;99.90;;;;;;5068377;28;20041;-61
2020/12/26 00:26:34;;;;;;;16.23;5.07;;;3.10;99.90;;;;;;5048581;28;20029;-59
2020/12/26 00:29:00;;;;;;;11.50;4.75;;;3.10;99.90;;;;;;5048127;28;20436;-59
2020/12/26 00:31:25;;;;;;;14.98;4.90;;;3.20;99.90;;;;;;5048319;28;20485;-62
2020/12/26 00:33:51;;;;;;;14.43;4.50;;;3.20;99.90;;;;;;5047219;28;20441;-59
2020/12/26 00:36:16;;;;;;;12.63;4.45;;;3.20;99.90;;;;;;5047785;28;20211;-60
2020/12/26 00:38:42;;;;;;;12.15;4.97;;;3.30;99.90;;;;;;5067520;28;20043;-59
2020/12/26 00:41:15;;;;;;;13.35;4.25;;;3.40;99.90;;;;;;5047503;28;20184;-59
2020/12/26 00:43:41;;;;;;;13.00;4.57;;;3.30;99.90;;;;;;5046937;28;20043;-61
2020/12/26 00:46:07;;;;;;;10.32;3.33;;;3.40;99.90;;;;;;5048056;28;20040;-58
2020/12/26 00:48:32;;;;;;;22.02;3.88;;;3.40;99.90;;;;;;5048342;28;20067;-60
2020/12/26 00:50:58;;;;;;;10.90;3.20;;;3.40;99.90;;;;;;5047960;28;20029;-59
2020/12/26 00:53:24;;;;;;;10.52;3.42;;;3.50;99.90;;;;;;5047899;28;20086;-59
2020/12/26 00:55:49;;;;;;;9.40;3.65;;;3.50;99.90;;;;;;5069093;28;20033;-61
2020/12/26 00:58:15;;;;;;;8.13;2.63;;;3.50;99.90;;;;;;5047590;28;20530;-60
2020/12/26 01:00:40;;;;;;;12.25;3.22;;;3.50;99.90;;;;;;5048142;28;20029;-59
2020/12/26 01:03:06;;;;;;;11.07;4.18;;;3.60;99.90;;;;;;5071004;28;20481;-59
2020/12/26 01:05:31;;;;;;;6.47;2.95;;;3.60;99.90;;;;;;5046983;28;20094;-59
2020/12/26 01:07:57;;;;;;;8.25;3.50;;;3.60;99.90;;;;;;5048121;28;20036;-62
2020/12/26 01:10:22;;;;;;;15.07;2.55;;;3.60;99.90;;;;;;5048114;28;20411;-58
2020/12/26 01:12:49;;;;;;;8.30;2.42;;;3.60;99.90;;;;;;5048876;28;20571;-59
2020/12/26 01:15:15;;;;;;;8.38;2.95;;;3.60;99.90;;;;;;5047986;28;20408;-59
2020/12/26 01:17:41;;;;;;;10.85;2.97;;;3.60;99.90;;;;;;5048120;28;20040;-57
2020/12/26 01:20:06;;;;;;;7.85;2.85;;;3.60;99.90;;;;;;5047734;28;20040;-60
2020/12/26 01:22:34;;;;;;;4.85;2.63;;;3.60;99.90;;;;;;5048633;28;20033;-61
2020/12/26 01:25:01;;;;;;;5.65;2.03;;;3.60;99.90;;;;;;5071989;28;20120;-60
2020/12/26 01:27:27;;;;;;;9.65;2.45;;;3.60;99.90;;;;;;5047803;28;20044;-61
2020/12/26 01:29:52;;;;;;;6.65;3.25;;;3.60;99.90;;;;;;5048344;28;20309;-59
2020/12/26 01:32:18;;;;;;;6.35;2.10;;;3.50;99.90;;;;;;5048205;28;20052;-59
2020/12/26 01:34:43;;;;;;;7.85;2.30;;;3.50;99.90;;;;;;5048072;28;20051;-61
2020/12/26 01:37:09;;;;;;;5.13;2.58;;;3.40;99.90;;;;;;5070842;28;20528;-61
2020/12/26 01:39:34;;;;;;;7.90;2.13;;;3.40;99.90;;;;;;5048036;28;20064;-60
2020/12/26 01:42:00;;;;;;;5.35;1.65;;;3.40;99.90;;;;;;5072030;28;20151;-60
2020/12/26 01:44:25;;;;;;;4.47;1.65;;;3.40;99.90;;;;;;5047489;28;20070;-60
2020/12/26 01:46:51;;;;;;;8.90;1.83;;;3.30;99.90;;;;;;5047810;28;20025;-60
2020/12/26 01:49:22;;;;;;;6.22;1.85;;;3.30;99.90;;;;;;5047871;28;20029;-59
2020/12/26 01:51:48;;;;;;;2.78;1.50;;;3.30;99.90;;;;;;5049387;28;20067;-58
2020/12/26 01:54:14;;;;;;;4.05;1.60;;;3.30;99.90;;;;;;5049879;28;20036;-59
2020/12/26 01:56:41;;;;;;;4.18;1.27;;;3.30;99.90;;;;;;5047601;28;20401;-61
2020/12/26 01:59:07;;;;;;;5.10;1.40;;;3.30;99.90;;;;;;5051773;28;20555;-61
2020/12/26 02:01:40;;;;;;;5.25;1.00;;;3.30;99.90;;;;;;5050305;28;20025;-61
2020/12/26 02:04:09;;;;;;;2.40;1.13;;;3.30;99.90;;;;;;5075704;28;20037;-60
2020/12/26 02:06:43;;;;;;;4.13;1.10;;;3.30;99.90;;;;;;5051298;28;20047;-59
2020/12/26 02:09:11;;;;;;;2.03;0.82;;;3.30;99.90;;;;;;5046135;28;20061;-59
2020/12/26 02:11:36;;;;;;;1.20;0.60;;;3.30;99.90;;;;;;5050947;28;20494;-59
2020/12/26 02:14:02;;;;;;;3.25;0.77;;;3.30;99.90;;;;;;5051773;28;20117;-62
2020/12/26 02:16:27;;;;;;;3.15;0.82;;;3.30;99.90;;;;;;5050787;28;20482;-59
2020/12/26 02:18:54;;;;;;;8.30;1.10;;;3.30;99.90;;;;;;5051663;28;20425;-62
2020/12/26 02:21:23;;;;;;;3.25;0.90;;;3.30;99.90;;;;;;5052102;28;20514;-60
2020/12/26 02:23:49;;;;;;;3.40;0.70;;;3.30;99.90;;;;;;5052669;28;20048;-60
2020/12/26 02:26:15;;;;;;;0.98;0.60;;;3.30;99.90;;;;;;5053109;28;21035;-59
2020/12/26 02:28:41;;;;;;;2.75;1.00;;;3.30;99.90;;;;;;5053582;28;20056;-60
2020/12/26 02:31:07;;;;;;;3.15;0.80;;;3.30;99.90;;;;;;5053706;28;20477;-60
2020/12/26 02:33:34;;;;;;;1.13;0.63;;;3.30;99.90;;;;;;5076647;28;20435;-63
2020/12/26 02:36:01;;;;;;;2.35;0.70;;;3.20;99.90;;;;;;5050838;28;20040;-60
2020/12/26 02:38:27;;;;;;;0.95;0.63;;;3.20;99.90;;;;;;5051073;28;20308;-61
2020/12/26 02:40:52;;;;;;;3.33;1.20;;;3.20;99.90;;;;;;5049252;28;20385;-61
2020/12/26 02:43:23;;;;;;;5.28;1.25;;;3.20;99.90;;;;;;5050804;28;20040;-61
2020/12/26 02:45:50;;;;;;;4.53;0.98;;;3.20;99.90;;;;;;5050629;28;20036;-60
2020/12/26 02:48:15;;;;;;;2.22;0.90;;;3.20;99.90;;;;;;5050578;28;20545;-60
2020/12/26 02:50:41;;;;;;;6.32;1.23;;;3.10;99.90;;;;;;5050595;28;20048;-60
2020/12/26 02:53:07;;;;;;;5.05;1.17;;;3.10;99.90;;;;;;5046701;28;20040;-60
2020/12/26 02:55:32;;;;;;;2.90;1.50;;;3.20;99.90;;;;;;5050646;28;20028;-60
2020/12/26 02:57:58;;;;;;;4.60;1.48;;;3.10;99.90;;;;;;5048518;28;20033;-61
2020/12/26 03:00:24;;;;;;;4.07;1.60;;;3.10;99.90;;;;;;5050977;28;20461;-62
2020/12/26 03:02:49;;;;;;;2.92;1.20;;;3.10;99.90;;;;;;5049693;28;20029;-61
2020/12/26 03:05:15;;;;;;;6.63;1.38;;;3.10;99.90;;;;;;5050096;28;20033;-61
2020/12/26 03:07:40;;;;;;;4.15;1.77;;;3.00;99.90;;;;;;5049840;28;20044;-61
2020/12/26 03:10:06;;;;;;;2.75;1.35;;;3.00;99.90;;;;;;5045040;28;20036;-60
2020/12/26 03:12:31;;;;;;;4.38;1.92;;;3.00;99.90;;;;;;5049739;28;20079;-60
2020/12/26 03:14:57;;;;;;;6.93;1.33;;;3.00;99.90;;;;;;5048379;28;20041;-60
2020/12/26 03:17:22;;;;;;;6.30;1.80;;;3.00;99.90;;;;;;5050091;28;20037;-61
2020/12/26 03:19:48;;;;;;;6.47;2.28;;;3.00;99.90;;;;;;5049578;28;20033;-61
2020/12/26 03:22:13;;;;;;;5.57;2.00;;;3.00;99.90;;;;;;5050101;28;20029;-62
2020/12/26 03:24:39;;;;;;;9.25;1.92;;;3.00;99.90;;;;;;5050089;28;20029;-60
2020/12/26 03:27:04;;;;;;;3.78;1.75;;;3.00;99.90;;;;;;5043746;28;20043;-60
2020/12/26 03:29:30;;;;;;;4.82;1.95;;;3.00;99.90;;;;;;5049777;28;20444;-60
2020/12/26 03:31:55;;;;;;;8.27;2.25;;;3.00;99.90;;;;;;5049462;28;20072;-60
2020/12/26 03:34:22;;;;;;;8.95;2.97;;;3.00;99.90;;;;;;5073763;28;20412;-61
2020/12/26 03:36:47;;;;;;;6.90;1.92;;;3.00;99.90;;;;;;5047671;28;20029;-61
2020/12/26 03:39:13;;;;;;;4.60;1.70;;;2.90;99.90;;;;;;5050025;28;20485;-61
2020/12/26 03:41:38;;;;;;;6.78;1.63;;;2.90;99.90;;;;;;5073291;28;20036;-60
2020/12/26 03:44:04;;;;;;;3.03;1.42;;;2.90;99.90;;;;;;5049776;28;21085;-62
2020/12/26 03:46:30;;;;;;;3.67;0.90;;;2.90;99.90;;;;;;5050566;28;20500;-60
2020/12/26 03:48:55;;;;;;;3.45;1.00;;;2.90;99.90;;;;;;5048363;28;20036;-59
2020/12/26 03:51:20;;;;;;;5.97;1.42;;;2.90;99.90;;;;;;5048623;28;20108;-61
2020/12/26 03:53:46;;;;;;;5.65;0.77;;;2.80;99.90;;;;;;5049528;28;20034;-60
2020/12/26 03:56:19;;;;;;;4.85;0.60;;;2.80;99.90;;;;;;5049090;28;20036;-59
2020/12/26 03:58:44;;;;;;;3.15;0.57;;;2.80;99.90;;;;;;5049136;28;20536;-60
2020/12/26 04:01:11;;;;;;;2.42;0.47;;;2.80;99.90;;;;;;5048827;28;20112;-60
2020/12/26 04:03:36;;;;;;;4.18;1.08;;;2.80;99.90;;;;;;5049344;28;20512;-59
2020/12/26 04:06:02;;;;;;;1.50;0.40;;;2.80;99.90;;;;;;5044639;28;20025;-61
2020/12/26 04:08:28;;;;;;;8.70;0.60;;;2.80;99.90;;;;;;5049185;28;20040;-60
2020/12/26 04:10:54;;;;;;;2.15;0.40;;;3.00;99.90;;;;;;5048744;28;20037;-60
2020/12/26 04:13:19;;;;;;;5.40;0.52;;;3.00;99.90;;;;;;5048896;28;20052;-60
2020/12/26 04:15:45;;;;;;;4.40;1.75;;;3.10;99.90;;;;;;5048788;28;20052;-60
2020/12/26 04:18:11;;;;;;;7.13;1.15;;;3.10;99.90;;;;;;5048434;28;20049;-60
2020/12/26 04:20:37;;;;;;;2.67;0.40;;;3.10;99.90;;;;;;5048898;28;20139;-60
2020/12/26 04:23:03;;;;;;;2.83;0.35;;;3.20;99.90;;;;;;5048419;28;20041;-60
2020/12/26 04:25:29;;;;;;;3.85;0.68;;;3.20;99.90;;;;;;5048643;28;20044;-61
2020/12/26 04:27:56;;;;;;;8.13;1.45;;;3.20;99.90;;;;;;5048330;28;20485;-61
2020/12/26 04:30:21;;;;;;;7.20;0.60;;;3.20;99.90;;;;;;5048719;28;20033;-61
2020/12/26 04:32:47;;;;;;;5.57;0.70;;;3.20;99.90;;;;;;5048746;28;20392;-60
2020/12/26 04:35:13;;;;;;;3.00;0.32;;;3.10;99.90;;;;;;5048537;28;20112;-60
2020/12/26 04:37:38;;;;;;;6.18;1.42;;;3.20;99.90;;;;;;5048244;28;20040;-60
2020/12/26 04:40:04;;;;;;;4.68;0.73;;;3.20;99.90;;;;;;5048191;28;20061;-60
2020/12/26 04:42:30;;;;;;;4.75;0.85;;;3.20;99.90;;;;;;5072567;28;20033;-59
2020/12/26 04:44:57;;;;;;;11.27;0.57;;;3.20;99.90;;;;;;5048916;28;20045;-60
2020/12/26 04:47:32;;;;;;;5.63;0.40;;;3.20;99.90;;;;;;5048028;28;20106;-60
2020/12/26 04:50:01;;;;;;;3.60;0.98;;;3.20;99.90;;;;;;5048687;28;20052;-60
2020/12/26 04:52:30;;;;;;;4.80;0.32;;;3.20;99.90;;;;;;5048530;28;20039;-62
2020/12/26 04:54:56;;;;;;;1.67;0.50;;;3.30;99.90;;;;;;5048417;28;20061;-61
2020/12/26 04:57:22;;;;;;;1.42;0.38;;;3.20;99.90;;;;;;5047755;28;20390;-62
2020/12/26 04:59:48;;;;;;;4.47;0.35;;;3.20;99.90;;;;;;5048394;28;20031;-61
2020/12/26 05:02:15;;;;;;;10.05;1.75;;;3.20;99.90;;;;;;5048422;28;20021;-62
2020/12/26 05:04:43;;;;;;;4.85;0.50;;;3.20;99.90;;;;;;5046913;28;20440;-60
2020/12/26 05:07:11;;;;;;;1.75;0.20;;;3.20;99.90;;;;;;5047670;28;20116;-62
2020/12/26 05:09:36;;;;;;;4.28;0.82;;;3.20;99.90;;;;;;5047907;28;20037;-61
2020/12/26 05:12:02;;;;;;;1.70;0.38;;;3.30;99.90;;;;;;5048368;28;20375;-60
2020/12/26 05:14:31;;;;;;;1.65;0.20;;;3.30;99.90;;;;;;5048067;28;20037;-61
2020/12/26 05:16:57;;;;;;;2.60;0.45;;;3.30;99.90;;;;;;5048249;28;20029;-61
2020/12/26 05:19:23;;;;;;;3.13;0.68;;;3.30;99.90;;;;;;5071157;28;20120;-60
2020/12/26 05:21:55;;;;;;;3.95;0.20;;;3.30;99.90;;;;;;5047919;28;20029;-60
2020/12/26 05:24:20;;;;;;;2.30;1.13;;;3.30;99.90;;;;;;5071368;28;20401;-60
2020/12/26 05:26:48;;;;;;;4.20;0.50;;;3.30;99.90;;;;;;5049257;28;20029;-61
2020/12/26 05:29:15;;;;;;;4.63;0.20;;;3.30;99.90;;;;;;5051852;28;20307;-60
2020/12/26 05:31:43;;;;;;;4.88;0.40;;;3.30;99.90;;;;;;5052284;28;20066;-61
2020/12/26 05:34:09;;;;;;;1.70;0.88;;;3.30;99.90;;;;;;5050772;28;20025;-60
2020/12/26 05:36:34;;;;;;;4.95;0.45;;;3.40;99.90;;;;;;5051177;28;20087;-60
2020/12/26 05:39:00;;;;;;;4.22;0.68;;;3.50;99.90;;;;;;5052015;28;20041;-60
2020/12/26 05:41:26;;;;;;;2.25;0.38;;;3.50;99.90;;;;;;5051427;28;20473;-61
2020/12/26 05:43:51;;;;;;;5.38;0.70;;;3.40;99.90;;;;;;5051717;28;20041;-60
2020/12/26 05:46:17;;;;;;;4.25;0.73;;;3.50;99.90;;;;;;5051147;28;20048;-62
2020/12/26 05:48:42;;;;;;;2.35;0.80;;;3.50;99.90;;;;;;5051360;28;20501;-59
2020/12/26 05:51:08;;;;;;;3.03;0.52;;;3.50;99.90;;;;;;5051532;28;20029;-62
2020/12/26 05:53:35;;;;;;;3.25;0.30;;;3.50;99.90;;;;;;5051098;28;20041;-60
2020/12/26 05:56:00;;;;;;;1.55;0.35;;;3.40;99.90;;;;;;5051413;28;20040;-60
2020/12/26 05:58:26;;;;;;;1.67;0.30;;;3.30;99.90;;;;;;5046619;28;20045;-59
2020/12/26 06:00:55;;;;;;;1.48;0.55;;;3.30;99.90;;;;;;5051452;28;20033;-60
2020/12/26 06:03:33;;;;;;;4.90;1.10;;;3.30;99.90;;;;;;5051238;28;20036;-59
2020/12/26 06:06:01;;;;;;;7.28;0.65;;;3.40;99.90;;;;;;5047261;28;20656;-61
2020/12/26 06:08:29;;;;;;;0.40;0.20;;;3.50;99.90;;;;;;5047205;28;20079;-61
2020/12/26 06:10:59;;;;;;;1.83;0.40;;;3.50;99.90;;;;;;5050809;28;20395;-60
2020/12/26 06:13:26;;;;;;;;;;;3.60;99.90;;;;;;5047588;28;20143;-60
2020/12/26 06:15:54;;;;;;;2.58;0.43;;;3.60;99.90;;;;;;5050503;28;19987;-61
2020/12/26 06:18:21;;;;;;;1.85;0.38;;;3.60;99.90;;;;;;5051041;28;20049;-61
2020/12/26 06:20:48;;;;;;;3.15;0.47;;;3.60;99.90;;;;;;5049023;28;20123;-60
2020/12/26 06:23:16;;;;;;;6.63;0.40;;;3.70;99.90;;;;;;5049739;28;20082;-60
2020/12/26 06:25:43;;;;;;;1.75;0.70;;;3.70;99.90;;;;;;5049967;28;20033;-60
2020/12/26 06:28:26;;;;;;;3.92;0.82;;;3.70;99.90;;;;;;5050853;28;20037;-60
2020/12/26 06:31:01;;;;;;;3.13;0.88;;;3.80;99.90;;;;;;5050329;28;20029;-61
2020/12/26 06:33:30;;;;;;;2.20;0.40;;;3.80;99.90;;;;;;5043351;28;20037;-60
2020/12/26 06:35:57;;;;;;;4.72;1.15;;;3.80;99.90;;;;;;5046459;28;20551;-60
2020/12/26 06:38:28;;;;;;;3.65;0.20;;;3.80;99.90;;;;;;5049163;28;20041;-60
2020/12/26 06:41:00;;;;;;;3.22;1.05;;;3.80;99.90;;;;;;5045959;28;20040;-60
2020/12/26 06:43:45;;;;;;;6.45;1.25;;;3.80;99.90;;;;;;5047020;28;20092;-59
2020/12/26 06:46:14;;;;;;;2.67;0.70;;;3.80;99.90;;;;;;5047401;28;20033;-60
2020/12/26 06:48:43;;;;;;;1.33;0.52;;;3.80;99.90;;;;;;5074208;28;20041;-61
2020/12/26 06:51:24;;;;;;;7.65;1.35;;;3.80;99.90;;;;;;5049915;28;20108;-60
2020/12/26 06:53:51;;;;;;;2.55;0.38;;;3.80;99.90;;;;;;5049951;28;20021;-60
2020/12/26 06:56:37;;;;;;;10.20;0.95;;;3.80;99.90;;;;;;5050288;28;20043;-62
2020/12/26 06:59:10;;;;;;;2.95;0.80;;;3.80;99.90;;;;;;5047005;28;20090;-60
2020/12/26 07:01:40;;;;;;;1.58;0.70;;;3.80;99.90;;;;;;5048734;28;20034;-61
2020/12/26 07:04:22;;;;;;;6.28;0.55;;;3.80;99.90;;;;;;5049896;28;20036;-60
2020/12/26 07:06:53;;;;;;;5.80;0.65;;;3.90;99.90;;;;;;5049775;28;20482;-61
2020/12/26 07:09:39;;;;;;;7.80;0.50;;;3.80;99.90;;;;;;5048363;28;20029;-60
2020/12/26 07:12:06;;;;;;;6.15;0.82;;;3.80;99.90;;;;;;5047012;28;20426;-59
2020/12/26 07:14:32;;;;;;;7.60;1.75;;;3.90;99.90;;;;;;5049899;28;20198;-60
2020/12/26 07:17:04;;;;;;;4.38;0.70;;;3.90;99.90;;;;;;5049280;28;20565;-62
2020/12/26 07:19:38;;;;;;;3.13;0.50;;;4.00;99.90;;;;;;5068459;28;20079;-61
2020/12/26 07:22:12;;;;;;;7.90;1.38;;;4.00;99.90;;;;;;5072921;28;20059;-60
2020/12/26 07:24:39;;;;;;;4.50;0.70;;;4.10;99.90;;;;;;5049936;28;20116;-60
2020/12/26 07:27:14;;;;;;;7.63;1.88;;;4.10;99.90;;;;;;5049355;28;20063;-60
2020/12/26 07:29:51;;;;;;;8.63;1.10;;;4.10;99.90;;;;;;5049608;28;20033;-60
2020/12/26 07:32:35;;;;;;;3.63;0.80;;;4.10;99.90;;;;;;5048844;28;20101;-60
2020/12/26 07:35:22;;;;;;;3.42;0.85;;;4.20;99.90;;;;;;5070121;28;20037;-59
2020/12/26 07:37:53;;;;;;;5.63;1.00;;;4.20;99.90;;;;;;5048497;28;20041;-60
2020/12/26 07:40:21;;;;;;;5.85;1.48;;;4.20;99.90;;;;;;5049236;28;20037;-61
2020/12/26 07:42:47;;;;;;;4.78;0.77;;;4.20;99.90;;;;;;5047980;28;20436;-62
2020/12/26 07:45:18;;;;;;;7.07;1.27;;;4.10;99.90;;;;;;5049096;28;20488;-61
2020/12/26 07:47:51;;;;;;;3.15;1.55;;;4.10;99.90;;;;;;5048989;28;20397;-60
2020/12/26 07:50:19;;;;;;;9.75;1.30;;;4.10;99.90;;;;;;5048823;28;20033;-61
2020/12/26 07:52:55;;;;;;;6.65;1.83;;;4.10;99.90;;;;;;5049087;28;20052;-60
2020/12/26 07:55:22;;;;;;;5.03;1.38;;;4.10;99.90;;;;;;5045208;28;20057;-64
2020/12/26 07:57:48;;;;;;;3.70;1.17;;;4.10;99.90;;;;;;5049032;28;20424;-59
2020/12/26 08:00:24;;;;;;;4.95;1.60;;;4.10;99.90;;;;;;5072389;28;20074;-62
2020/12/26 08:02:52;;;;;;;3.60;1.50;;;4.10;99.90;;;;;;5045413;28;20037;-62
2020/12/26 08:05:26;;;;;;;4.95;1.52;;;4.10;99.90;;;;;;5048688;28;20075;-61
2020/12/26 08:07:52;;;;;;;3.90;1.42;;;4.20;99.90;;;;;;5040277;28;20036;-60
2020/12/26 08:10:18;;;;;;;5.88;2.10;;;4.20;99.90;;;;;;5048820;28;20036;-59
2020/12/26 08:12:52;;;;;;;6.03;1.50;;;4.30;99.90;;;;;;5049128;28;20098;-60
2020/12/26 08:15:19;;;;;;;5.45;1.92;;;4.30;99.90;;;;;;5047268;28;20029;-61
2020/12/26 08:17:46;;;;;;;5.15;1.60;;;4.30;99.90;;;;;;5048882;28;20528;-61
2020/12/26 08:20:13;;;;;;;2.58;1.42;;;4.30;99.90;;;;;;5048572;28;20061;-60
2020/12/26 08:22:42;;;;;;;5.13;1.23;;;4.30;99.90;;;;;;5049066;28;20101;-61
2020/12/26 08:25:09;;;;;;;5.97;2.05;;;4.30;99.90;;;;;;5049023;28;20037;-61
2020/12/26 08:27:40;;;;;;;4.65;1.85;;;4.40;99.90;;;;;;5048454;28;20059;-61
2020/12/26 08:30:09;;;;;;;4.20;1.60;;;4.30;99.90;;;;;;5046913;28;20449;-64
2020/12/26 08:33:04;;;;;;;11.23;1.90;;;4.40;99.90;;;;;;5046126;28;20076;-60
2020/12/26 08:35:31;;;;;;;7.72;1.42;;;4.40;99.90;;;;;;5072077;28;20045;-61
2020/12/26 08:38:05;;;;;;;9.38;1.70;;;4.40;99.90;;;;;;5056844;23;20050;-67
2020/12/26 08:40:35;;;;;;;7.30;1.45;;;4.40;99.90;;;;;;5037236;28;20056;-66
2020/12/26 08:43:02;;;;;;;3.40;1.07;;;4.40;99.90;;;;;;5038491;28;20104;-67
2020/12/26 08:45:33;;;;;;;3.78;1.98;;;4.50;99.90;;;;;;5039298;28;20029;-67
2020/12/26 08:48:12;;;;;;;5.10;1.55;;;4.50;99.90;;;;;;5035977;28;20034;-68
2020/12/26 08:50:37;;;;;;;10.55;1.75;;;4.50;99.90;;;;;;5039058;28;20050;-67
2020/12/26 08:53:05;;;;;;;3.95;1.50;;;4.50;99.90;;;;;;5040491;28;20068;-67
2020/12/26 08:55:31;;;;;;;4.57;1.73;;;4.50;99.90;;;;;;5043792;28;20481;-67
2020/12/26 08:58:00;;;;;;;3.85;1.42;;;4.50;99.90;;;;;;5042021;28;20071;-66
2020/12/26 09:00:27;;;;;;;5.00;1.70;;;4.60;99.90;;;;;;5038103;28;20034;-67
2020/12/26 09:02:54;;;;;;;7.35;1.67;;;4.60;99.90;;;;;;5041749;28;20029;-67
2020/12/26 09:05:21;;;;;;;7.90;2.47;;;4.60;99.90;;;;;;5045897;28;20028;-67
2020/12/26 09:07:47;;;;;;;5.70;2.03;;;4.60;99.90;;;;;;5042527;28;20117;-67
2020/12/26 09:10:12;;;;;;;12.57;2.72;;;4.60;99.90;;;;;;5048428;28;20120;-65
2020/12/26 09:12:38;;;;;;;4.25;1.70;;;4.50;99.90;;;;;;5045804;28;20061;-66
2020/12/26 09:15:03;;;;;;;7.22;2.95;;;4.60;99.90;;;;;;5045853;28;20044;-66
2020/12/26 09:17:29;;;;;;;6.03;1.80;;;4.70;99.90;;;;;;5043571;28;20091;-66
2020/12/26 09:19:57;;;;;;;7.60;2.30;;;4.70;99.90;;;;;;5043274;28;20083;-66
2020/12/26 09:22:23;;;;;;;3.50;1.73;;;4.70;99.90;;;;;;5046828;28;20108;-67
2020/12/26 09:24:48;;;;;;;4.55;1.45;;;4.70;99.90;;;;;;5046360;28;20470;-67
2020/12/26 09:27:18;;;;;;;2.80;1.38;;;4.70;99.90;;;;;;5040919;28;20043;-65
2020/12/26 09:29:44;;;;;;;5.47;1.50;;;4.70;99.90;;;;;;5043369;28;20033;-66
2020/12/26 09:32:09;;;;;;;3.92;1.38;;;4.70;99.90;;;;;;5045113;28;20340;-64
2020/12/26 09:34:36;;;;;;;4.63;1.55;;;4.70;99.90;;;;;;5046874;28;20112;-67
2020/12/26 09:37:03;;;;;;;2.00;1.25;;;4.80;99.90;;;;;;5040504;28;20386;-67
2020/12/26 09:39:28;;;;;;;6.38;1.70;;;4.80;99.90;;;;;;5048055;28;20036;-67
2020/12/26 09:41:54;;;;;;;7.15;2.28;;;4.80;99.90;;;;;;5047505;28;20033;-66
2020/12/26 09:44:19;;;;;;;5.18;1.48;;;4.80;99.90;;;;;;5046354;28;20547;-66
2020/12/26 09:46:45;;;;;;;5.95;1.80;;;4.80;99.90;;;;;;5046797;28;20037;-67
2020/12/26 09:49:11;;;;;;;4.47;1.77;;;4.80;99.90;;;;;;5046952;28;20029;-66
2020/12/26 09:51:37;;;;;;;3.63;1.50;;;4.80;99.90;;;;;;5047000;28;20068;-66
2020/12/26 09:54:04;;;;;;;6.47;1.90;;;4.90;99.90;;;;;;5054327;28;20037;-65
2020/12/26 09:56:29;;;;;;;8.45;1.92;;;4.90;99.90;;;;;;5048895;28;20061;-67
2020/12/26 09:58:56;;;;;;;4.85;1.25;;;4.90;99.90;;;;;;5053879;28;20064;-66
2020/12/26 10:01:22;;;;;;;5.38;1.00;;;4.90;99.90;;;;;;5056469;28;20036;-68
2020/12/26 10:03:49;;;;;;;4.93;1.02;;;5.00;99.90;;;;;;5050659;28;20052;-66
2020/12/26 10:06:18;;;;;;;6.22;1.73;;;5.00;99.90;;;;;;5052680;28;20450;-67
2020/12/26 10:08:45;;;;;;;4.25;1.08;;;5.10;99.90;;;;;;5047916;28;20045;-65
2020/12/26 10:11:15;;;;;;;4.70;0.73;;;5.10;99.90;;;;;;5053451;28;20029;-67
2020/12/26 10:13:41;;;;;;;5.30;0.95;;;5.10;99.90;;;;;;5056318;28;20133;-66
2020/12/26 10:16:07;;;;;;;3.00;0.80;;;5.20;99.90;;;;;;5050823;28;20033;-67
2020/12/26 10:18:33;;;;;;;4.10;1.30;;;5.20;99.90;;;;;;5046734;28;20049;-66
2020/12/26 10:20:58;;;;;;;1.85;0.90;;;5.20;99.90;;;;;;5049292;28;20044;-67
2020/12/26 10:23:24;;;;;;;4.18;1.08;;;5.30;99.90;;;;;;5053606;28;20060;-69
2020/12/26 10:25:50;;;;;;;7.03;0.98;;;5.20;99.90;;;;;;5051971;28;20470;-67
2020/12/26 10:28:19;;;;;;;2.13;1.00;;;5.30;99.90;;;;;;5052211;28;20048;-66
2020/12/26 10:30:46;;;;;;;4.15;1.35;;;5.30;99.90;;;;;;5044938;28;20057;-67
2020/12/26 10:33:12;;;;;;;4.45;1.63;;;5.30;99.90;;;;;;5044421;28;20112;-66
2020/12/26 10:35:37;;;;;;;4.13;1.73;;;5.30;99.90;;;;;;5040226;28;20112;-67
2020/12/26 10:38:03;;;;;;;5.45;1.63;;;5.30;99.90;;;;;;5040417;28;20485;-66
2020/12/26 10:40:28;;;;;;;21.63;2.03;;;5.30;99.90;;;;;;5038569;28;20505;-66
2020/12/26 10:42:54;;;;;;;4.53;1.35;;;5.30;99.90;;;;;;5038897;28;20037;-67
2020/12/26 10:45:19;;;;;;;4.30;1.23;;;5.30;99.90;;;;;;5040634;28;20025;-67
2020/12/26 10:47:45;;;;;;;6.35;1.80;;;5.40;99.90;;;;;;5037713;28;20026;-66
2020/12/26 10:50:10;;;;;;;5.40;1.30;;;5.50;99.90;;;;;;5042774;28;20029;-67
2020/12/26 10:52:36;;;;;;;7.43;1.67;;;5.50;99.90;;;;;;5039841;28;20077;-67
2020/12/26 10:55:01;;;;;;;3.03;1.15;;;5.50;99.90;;;;;;5041451;28;20029;-65
2020/12/26 10:57:27;;;;;;;6.82;1.48;;;5.50;99.90;;;;;;5040446;28;20059;-67
2020/12/26 10:59:52;;;;;;;4.57;1.77;;;5.50;99.90;;;;;;5040095;28;20022;-69
2020/12/26 11:02:18;;;;;;;2.28;1.00;;;5.50;99.90;;;;;;5041960;28;20386;-65
2020/12/26 11:04:43;;;;;;;3.70;1.15;;;5.50;99.90;;;;;;5038553;28;20060;-67
2020/12/26 11:07:09;;;;;;;6.35;1.42;;;5.50;99.90;;;;;;5042578;28;20116;-67
2020/12/26 11:09:34;;;;;;;3.33;1.42;;;5.50;99.90;;;;;;5039121;28;20087;-67
2020/12/26 11:12:01;;;;;;;11.32;2.00;;;5.40;99.90;;;;;;5040939;28;20163;-66
2020/12/26 11:14:26;;;;;;;4.15;1.70;;;5.40;99.90;;;;;;5040543;28;20021;-67
2020/12/26 11:16:53;;;;;;;7.50;1.67;;;5.30;99.90;;;;;;5040031;28;20445;-66
2020/12/26 11:19:20;;;;;;;3.10;1.20;;;5.40;99.90;;;;;;5039804;28;20091;-66
2020/12/26 11:21:51;;;;;;;4.65;1.92;;;5.40;99.90;;;;;;5039048;28;20037;-67
2020/12/26 11:24:17;;;;;;;3.63;1.25;;;5.40;99.90;;;;;;5040693;28;20036;-66
2020/12/26 11:26:42;;;;;;;6.18;1.40;;;5.40;99.90;;;;;;5038861;28;20493;-66
2020/12/26 11:29:08;;;;;;;6.25;1.50;;;5.50;99.90;;;;;;5041642;28;20056;-67
2020/12/26 11:31:33;;;;;;;5.03;1.48;;;5.60;99.90;;;;;;5039195;28;20048;-67
2020/12/26 11:33:59;;;;;;;8.43;1.52;;;5.70;99.90;;;;;;5040519;28;20025;-67
2020/12/26 11:36:27;;;;;;;7.90;1.30;;;5.80;99.90;;;;;;5039977;28;20500;-67
2020/12/26 11:38:54;;;;;;;3.58;1.58;;;5.70;99.90;;;;;;5037859;28;20040;-67
2020/12/26 11:41:23;;;;;;;6.95;1.30;;;5.80;99.90;;;;;;5040361;28;20119;-66
2020/12/26 11:43:49;;;;;;;5.45;1.50;;;5.80;99.90;;;;;;5039135;28;20041;-67
2020/12/26 11:46:15;;;;;;;6.50;1.77;;;5.90;99.90;;;;;;5039679;28;20037;-67
2020/12/26 11:48:41;;;;;;;5.80;1.48;;;5.90;99.90;;;;;;5038105;28;20162;-67
2020/12/26 11:51:08;;;;;;;8.77;1.52;;;5.90;99.90;;;;;;5041290;28;20037;-67
2020/12/26 11:53:34;;;;;;;6.35;1.63;;;5.90;99.90;;;;;;5035369;28;20242;-67
2020/12/26 11:55:59;;;;;;;7.10;1.75;;;6.00;99.90;;;;;;5038287;28;20041;-66
2020/12/26 11:58:26;;;;;;;4.10;1.20;;;6.00;99.90;;;;;;5040311;28;20167;-65
2020/12/26 12:00:54;;;;;;;6.65;1.58;;;6.00;99.90;;;;;;5037860;28;20102;-67
2020/12/26 12:03:20;;;;;;;4.57;1.70;;;6.00;99.90;;;;;;5039348;28;20163;-66
2020/12/26 12:05:46;;;;;;;7.00;1.50;;;6.10;99.90;;;;;;5039929;28;20116;-65
2020/12/26 12:08:12;;;;;;;7.45;2.05;;;6.00;99.90;;;;;;5037290;28;20045;-67
2020/12/26 12:10:41;;;;;;;6.13;1.27;;;6.10;99.90;;;;;;5042509;28;20076;-67
2020/12/26 12:13:07;;;;;;;3.28;1.55;;;6.10;99.90;;;;;;5041295;28;20044;-66
2020/12/26 12:15:34;;;;;;;4.35;1.55;;;6.20;99.90;;;;;;5040742;28;20413;-67
2020/12/26 12:18:00;;;;;;;4.45;1.25;;;6.20;99.90;;;;;;5041857;28;20043;-66
2020/12/26 12:20:32;;;;;;;8.02;2.03;;;6.20;99.90;;;;;;5040253;28;20124;-67
2020/12/26 12:22:58;;;;;;;2.53;1.08;;;6.20;99.90;;;;;;5041494;28;20106;-66
2020/12/26 12:25:25;;;;;;;3.28;1.40;;;6.10;99.90;;;;;;5041284;28;20489;-65
2020/12/26 12:27:51;;;;;;;6.88;1.65;;;6.20;99.90;;;;;;5040404;28;20486;-66
2020/12/26 12:30:17;;;;;;;2.67;1.17;;;6.10;99.90;;;;;;5041139;28;20036;-67
2020/12/26 12:32:43;;;;;;;5.97;2.00;;;6.10;99.90;;;;;;5042126;28;20045;-66
2020/12/26 12:35:10;;;;;;;4.28;1.35;;;6.10;99.90;;;;;;5040216;28;20375;-66
2020/12/26 12:37:35;;;;;;;7.78;1.95;;;6.10;99.90;;;;;;5037638;28;20037;-67
2020/12/26 12:40:03;;;;;;;9.52;2.28;;;6.10;99.90;;;;;;5041910;28;20507;-67
2020/12/26 12:42:29;;;;;;;5.30;2.05;;;6.10;99.90;;;;;;5039952;28;20037;-67
2020/12/26 12:44:55;;;;;;;4.22;1.60;;;6.10;99.90;;;;;;5039584;28;20124;-67
2020/12/26 12:47:22;;;;;;;4.95;1.23;;;6.10;99.90;;;;;;5040124;28;20036;-66
2020/12/26 12:49:48;;;;;;;6.13;1.48;;;6.10;99.90;;;;;;5041346;28;20550;-66
2020/12/26 12:52:13;;;;;;;5.88;1.20;;;6.10;99.90;;;;;;5041600;28;20040;-67
2020/12/26 12:54:39;;;;;;;5.88;2.13;;;6.20;99.90;;;;;;5043757;28;20040;-65
2020/12/26 12:57:05;;;;;;;2.70;1.25;;;6.20;99.90;;;;;;5045259;28;20037;-66